KFSD

Joe Foss Field Airport

Sioux Falls, South Dakota, USA
METAR KFSD 231956Z 00000KT 10SM CLR 12/M02 A3036 RMK AO2 SLP293 T01171022
Observed Flight Rules
Oct-23 @ 19:56 UTC (35 minutes ago) Visual Flight Rules
Visibility Clouds
10 miles
  • Clear skies
Temperatures Readings
Current 12°C / 54°F
Dewpoint -2°C / 28°F
Humidity 38%
Altimeter 30.36" Hg
Pressure 1029.3 hPa
Elevation 436
METAR KFSD 231956Z 00000KT 10SM CLR 12/M02 A3036 RMK AO2 SLP293 T01171022
Observed Flight Rules
Oct-23 @ 19:56 UTC
(35 minutes ago)
VFR
Clouds
  • Clear skies
Temperature Dewpoint
12°C / 54°F -2°C / 28°F
Humidity Altimeter Pressure
38% 30.36" Hg 1029.3 hPa